sensor_id;sensor_type;location;lat;lon;timestamp;P1;durP1;ratioP1;P2;durP2;ratioP2
73264;SDS011;61493;51.008;14.088;2022-12-17T00:01:01;47.27;;;21.07;;
73264;SDS011;61493;51.008;14.088;2022-12-17T00:03:44;52.90;;;24.73;;
73264;SDS011;61493;51.008;14.088;2022-12-17T00:06:29;49.83;;;21.50;;
73264;SDS011;61493;51.008;14.088;2022-12-17T00:09:12;53.80;;;22.80;;
73264;SDS011;61493;51.008;14.088;2022-12-17T00:11:57;41.93;;;20.97;;
73264;SDS011;61493;51.008;14.088;2022-12-17T00:14:40;43.83;;;22.67;;
73264;SDS011;61493;51.008;14.088;2022-12-17T00:17:24;39.70;;;20.83;;
73264;SDS011;61493;51.008;14.088;2022-12-17T00:20:08;46.10;;;20.27;;
73264;SDS011;61493;51.008;14.088;2022-12-17T00:22:59;38.23;;;19.63;;
73264;SDS011;61493;51.008;14.088;2022-12-17T00:25:43;40.27;;;20.07;;
73264;SDS011;61493;51.008;14.088;2022-12-17T00:28:32;45.33;;;21.17;;
73264;SDS011;61493;51.008;14.088;2022-12-17T00:31:15;40.93;;;20.47;;
73264;SDS011;61493;51.008;14.088;2022-12-17T00:33:59;42.43;;;19.67;;
73264;SDS011;61493;51.008;14.088;2022-12-17T00:36:43;38.90;;;20.67;;
73264;SDS011;61493;51.008;14.088;2022-12-17T00:39:27;49.07;;;21.03;;
73264;SDS011;61493;51.008;14.088;2022-12-17T00:42:11;43.00;;;21.97;;
73264;SDS011;61493;51.008;14.088;2022-12-17T00:44:55;38.93;;;21.23;;
73264;SDS011;61493;51.008;14.088;2022-12-17T00:47:39;40.00;;;19.73;;
73264;SDS011;61493;51.008;14.088;2022-12-17T00:50:23;42.27;;;22.13;;
73264;SDS011;61493;51.008;14.088;2022-12-17T00:53:07;42.50;;;21.07;;
73264;SDS011;61493;51.008;14.088;2022-12-17T00:55:51;39.10;;;18.40;;
73264;SDS011;61493;51.008;14.088;2022-12-17T00:58:35;44.83;;;22.87;;
73264;SDS011;61493;51.008;14.088;2022-12-17T01:01:19;42.97;;;19.33;;
73264;SDS011;61493;51.008;14.088;2022-12-17T01:04:03;53.60;;;23.07;;
73264;SDS011;61493;51.008;14.088;2022-12-17T01:06:47;48.93;;;24.20;;
73264;SDS011;61493;51.008;14.088;2022-12-17T01:09:31;43.80;;;20.67;;
73264;SDS011;61493;51.008;14.088;2022-12-17T01:12:15;48.47;;;21.83;;
73264;SDS011;61493;51.008;14.088;2022-12-17T01:14:59;45.27;;;20.63;;
73264;SDS011;61493;51.008;14.088;2022-12-17T01:17:43;48.93;;;21.30;;
73264;SDS011;61493;51.008;14.088;2022-12-17T01:20:27;40.80;;;20.80;;
73264;SDS011;61493;51.008;14.088;2022-12-17T01:23:11;48.43;;;20.47;;
73264;SDS011;61493;51.008;14.088;2022-12-17T01:25:55;49.53;;;22.47;;
73264;SDS011;61493;51.008;14.088;2022-12-17T01:28:39;38.67;;;18.83;;
73264;SDS011;61493;51.008;14.088;2022-12-17T01:31:23;52.03;;;20.20;;
73264;SDS011;61493;51.008;14.088;2022-12-17T01:34:07;44.57;;;19.63;;
73264;SDS011;61493;51.008;14.088;2022-12-17T01:36:51;52.60;;;22.30;;
73264;SDS011;61493;51.008;14.088;2022-12-17T01:39:35;46.50;;;19.63;;
73264;SDS011;61493;51.008;14.088;2022-12-17T01:42:19;37.60;;;19.10;;
73264;SDS011;61493;51.008;14.088;2022-12-17T01:45:03;34.60;;;19.33;;
73264;SDS011;61493;51.008;14.088;2022-12-17T01:50:15;43.93;;;18.37;;
73264;SDS011;61493;51.008;14.088;2022-12-17T01:53:00;36.80;;;19.40;;
73264;SDS011;61493;51.008;14.088;2022-12-17T01:55:45;52.80;;;20.30;;
73264;SDS011;61493;51.008;14.088;2022-12-17T01:58:30;29.17;;;15.97;;
73264;SDS011;61493;51.008;14.088;2022-12-17T02:01:14;41.00;;;17.60;;
73264;SDS011;61493;51.008;14.088;2022-12-17T02:03:58;39.03;;;17.87;;
73264;SDS011;61493;51.008;14.088;2022-12-17T02:06:44;29.67;;;18.43;;
73264;SDS011;61493;51.008;14.088;2022-12-17T02:09:45;45.73;;;19.50;;
73264;SDS011;61493;51.008;14.088;2022-12-17T02:12:33;44.90;;;19.17;;
73264;SDS011;61493;51.008;14.088;2022-12-17T02:16:20;33.60;;;18.03;;
73264;SDS011;61493;51.008;14.088;2022-12-17T02:18:34;45.00;;;18.00;;
73264;SDS011;61493;51.008;14.088;2022-12-17T02:21:19;48.93;;;19.03;;
73264;SDS011;61493;51.008;14.088;2022-12-17T02:24:11;37.33;;;18.50;;
73264;SDS011;61493;51.008;14.088;2022-12-17T02:26:58;37.13;;;18.13;;
73264;SDS011;61493;51.008;14.088;2022-12-17T02:29:45;40.43;;;18.83;;
73264;SDS011;61493;51.008;14.088;2022-12-17T02:32:29;46.77;;;19.20;;
73264;SDS011;61493;51.008;14.088;2022-12-17T02:35:16;44.20;;;21.23;;
73264;SDS011;61493;51.008;14.088;2022-12-17T02:38:00;41.30;;;21.23;;
73264;SDS011;61493;51.008;14.088;2022-12-17T02:40:44;42.57;;;19.87;;
73264;SDS011;61493;51.008;14.088;2022-12-17T02:43:28;37.33;;;17.57;;
73264;SDS011;61493;51.008;14.088;2022-12-17T02:46:13;48.17;;;20.70;;
73264;SDS011;61493;51.008;14.088;2022-12-17T02:48:57;30.80;;;17.27;;
73264;SDS011;61493;51.008;14.088;2022-12-17T02:51:41;43.53;;;22.10;;
73264;SDS011;61493;51.008;14.088;2022-12-17T02:54:29;42.83;;;18.77;;
73264;SDS011;61493;51.008;14.088;2022-12-17T02:57:14;39.17;;;19.20;;
73264;SDS011;61493;51.008;14.088;2022-12-17T02:59:58;40.07;;;18.77;;
73264;SDS011;61493;51.008;14.088;2022-12-17T03:02:42;47.50;;;20.33;;
73264;SDS011;61493;51.008;14.088;2022-12-17T03:05:26;41.13;;;20.07;;
73264;SDS011;61493;51.008;14.088;2022-12-17T03:08:10;44.33;;;21.10;;
73264;SDS011;61493;51.008;14.088;2022-12-17T03:10:54;47.67;;;21.77;;
73264;SDS011;61493;51.008;14.088;2022-12-17T03:13:38;49.20;;;22.63;;
73264;SDS011;61493;51.008;14.088;2022-12-17T03:16:22;38.60;;;19.80;;
73264;SDS011;61493;51.008;14.088;2022-12-17T03:19:07;39.47;;;19.27;;
73264;SDS011;61493;51.008;14.088;2022-12-17T03:21:51;43.20;;;18.87;;
73264;SDS011;61493;51.008;14.088;2022-12-17T03:24:35;37.47;;;20.03;;
73264;SDS011;61493;51.008;14.088;2022-12-17T03:27:19;47.77;;;21.17;;
73264;SDS011;61493;51.008;14.088;2022-12-17T03:30:03;43.57;;;19.67;;
73264;SDS011;61493;51.008;14.088;2022-12-17T03:32:47;43.07;;;20.90;;
73264;SDS011;61493;51.008;14.088;2022-12-17T03:35:31;49.20;;;19.53;;
73264;SDS011;61493;51.008;14.088;2022-12-17T03:38:15;40.33;;;19.80;;
73264;SDS011;61493;51.008;14.088;2022-12-17T03:40:59;39.87;;;19.57;;
73264;SDS011;61493;51.008;14.088;2022-12-17T03:43:42;48.57;;;20.63;;
73264;SDS011;61493;51.008;14.088;2022-12-17T03:46:27;35.47;;;17.90;;
73264;SDS011;61493;51.008;14.088;2022-12-17T03:49:10;45.43;;;22.67;;
73264;SDS011;61493;51.008;14.088;2022-12-17T03:51:55;42.47;;;21.30;;
73264;SDS011;61493;51.008;14.088;2022-12-17T03:54:39;42.17;;;22.40;;
73264;SDS011;61493;51.008;14.088;2022-12-17T03:57:23;38.37;;;18.73;;
73264;SDS011;61493;51.008;14.088;2022-12-17T04:00:07;39.83;;;20.33;;
73264;SDS011;61493;51.008;14.088;2022-12-17T04:02:51;39.33;;;18.93;;
73264;SDS011;61493;51.008;14.088;2022-12-17T04:05:35;40.80;;;17.97;;
73264;SDS011;61493;51.008;14.088;2022-12-17T04:08:18;43.43;;;20.47;;
73264;SDS011;61493;51.008;14.088;2022-12-17T04:11:02;38.80;;;19.03;;
73264;SDS011;61493;51.008;14.088;2022-12-17T04:13:46;45.40;;;18.60;;
73264;SDS011;61493;51.008;14.088;2022-12-17T04:16:30;42.20;;;21.20;;
73264;SDS011;61493;51.008;14.088;2022-12-17T04:19:14;47.53;;;21.40;;
73264;SDS011;61493;51.008;14.088;2022-12-17T04:21:58;48.33;;;22.03;;
73264;SDS011;61493;51.008;14.088;2022-12-17T04:24:42;46.80;;;20.87;;
73264;SDS011;61493;51.008;14.088;2022-12-17T04:27:26;38.17;;;20.37;;
73264;SDS011;61493;51.008;14.088;2022-12-17T04:30:21;44.23;;;22.43;;
73264;SDS011;61493;51.008;14.088;2022-12-17T04:33:04;39.27;;;18.63;;
73264;SDS011;61493;51.008;14.088;2022-12-17T04:35:48;40.00;;;19.60;;
73264;SDS011;61493;51.008;14.088;2022-12-17T04:38:32;41.70;;;17.77;;
73264;SDS011;61493;51.008;14.088;2022-12-17T04:41:17;42.63;;;21.17;;
73264;SDS011;61493;51.008;14.088;2022-12-17T04:44:01;44.90;;;19.83;;
73264;SDS011;61493;51.008;14.088;2022-12-17T04:46:44;42.97;;;19.23;;
73264;SDS011;61493;51.008;14.088;2022-12-17T04:49:29;51.30;;;19.93;;
73264;SDS011;61493;51.008;14.088;2022-12-17T04:52:13;37.70;;;19.53;;
73264;SDS011;61493;51.008;14.088;2022-12-17T04:54:57;43.03;;;19.83;;
73264;SDS011;61493;51.008;14.088;2022-12-17T04:57:41;47.17;;;19.60;;
73264;SDS011;61493;51.008;14.088;2022-12-17T05:00:25;49.20;;;19.33;;
73264;SDS011;61493;51.008;14.088;2022-12-17T05:03:10;33.63;;;17.13;;
73264;SDS011;61493;51.008;14.088;2022-12-17T05:05:54;44.80;;;21.07;;
73264;SDS011;61493;51.008;14.088;2022-12-17T05:08:38;35.43;;;17.17;;
73264;SDS011;61493;51.008;14.088;2022-12-17T05:11:22;41.97;;;18.37;;
73264;SDS011;61493;51.008;14.088;2022-12-17T05:14:06;38.23;;;20.00;;
73264;SDS011;61493;51.008;14.088;2022-12-17T05:17:09;42.80;;;19.87;;
73264;SDS011;61493;51.008;14.088;2022-12-17T05:19:53;38.53;;;17.87;;
73264;SDS011;61493;51.008;14.088;2022-12-17T05:22:37;46.33;;;21.77;;
73264;SDS011;61493;51.008;14.088;2022-12-17T05:25:21;47.27;;;22.23;;
73264;SDS011;61493;51.008;14.088;2022-12-17T05:28:05;36.80;;;17.80;;
73264;SDS011;61493;51.008;14.088;2022-12-17T05:30:52;42.87;;;19.53;;
73264;SDS011;61493;51.008;14.088;2022-12-17T05:33:36;45.47;;;19.00;;
73264;SDS011;61493;51.008;14.088;2022-12-17T05:36:20;43.03;;;19.30;;
73264;SDS011;61493;51.008;14.088;2022-12-17T05:39:04;55.73;;;22.77;;
73264;SDS011;61493;51.008;14.088;2022-12-17T05:41:48;50.53;;;20.43;;
73264;SDS011;61493;51.008;14.088;2022-12-17T05:44:32;42.10;;;20.57;;
73264;SDS011;61493;51.008;14.088;2022-12-17T05:47:16;49.70;;;20.53;;
73264;SDS011;61493;51.008;14.088;2022-12-17T05:50:00;39.57;;;19.50;;
73264;SDS011;61493;51.008;14.088;2022-12-17T05:52:44;43.60;;;20.30;;
73264;SDS011;61493;51.008;14.088;2022-12-17T05:55:28;41.53;;;19.87;;
73264;SDS011;61493;51.008;14.088;2022-12-17T05:58:12;45.23;;;19.70;;
73264;SDS011;61493;51.008;14.088;2022-12-17T06:00:56;39.63;;;19.27;;
73264;SDS011;61493;51.008;14.088;2022-12-17T06:03:40;41.80;;;21.43;;
73264;SDS011;61493;51.008;14.088;2022-12-17T06:06:24;46.23;;;20.87;;
73264;SDS011;61493;51.008;14.088;2022-12-17T06:09:08;44.17;;;18.27;;
73264;SDS011;61493;51.008;14.088;2022-12-17T06:11:52;41.83;;;19.60;;
73264;SDS011;61493;51.008;14.088;2022-12-17T06:14:36;50.60;;;22.00;;
73264;SDS011;61493;51.008;14.088;2022-12-17T06:17:20;49.50;;;21.17;;
73264;SDS011;61493;51.008;14.088;2022-12-17T06:20:04;41.60;;;19.07;;
73264;SDS011;61493;51.008;14.088;2022-12-17T06:22:57;40.53;;;20.50;;
73264;SDS011;61493;51.008;14.088;2022-12-17T06:25:41;47.97;;;21.83;;
73264;SDS011;61493;51.008;14.088;2022-12-17T06:28:28;55.23;;;20.77;;
73264;SDS011;61493;51.008;14.088;2022-12-17T06:31:11;48.97;;;21.57;;
73264;SDS011;61493;51.008;14.088;2022-12-17T06:33:56;48.73;;;21.80;;
73264;SDS011;61493;51.008;14.088;2022-12-17T06:36:40;45.60;;;21.20;;
73264;SDS011;61493;51.008;14.088;2022-12-17T06:39:24;47.03;;;18.97;;
73264;SDS011;61493;51.008;14.088;2022-12-17T06:42:10;44.20;;;19.73;;
73264;SDS011;61493;51.008;14.088;2022-12-17T06:44:54;45.93;;;22.87;;
73264;SDS011;61493;51.008;14.088;2022-12-17T06:48:01;43.00;;;21.17;;
73264;SDS011;61493;51.008;14.088;2022-12-17T06:50:45;53.87;;;23.60;;
73264;SDS011;61493;51.008;14.088;2022-12-17T06:53:29;48.03;;;21.37;;
73264;SDS011;61493;51.008;14.088;2022-12-17T06:56:13;43.80;;;21.67;;
73264;SDS011;61493;51.008;14.088;2022-12-17T06:58:57;50.70;;;21.60;;
73264;SDS011;61493;51.008;14.088;2022-12-17T07:01:41;41.23;;;23.03;;
73264;SDS011;61493;51.008;14.088;2022-12-17T07:04:25;44.87;;;22.70;;
73264;SDS011;61493;51.008;14.088;2022-12-17T07:07:09;44.03;;;20.30;;
73264;SDS011;61493;51.008;14.088;2022-12-17T07:09:53;49.30;;;21.73;;
73264;SDS011;61493;51.008;14.088;2022-12-17T07:12:36;43.63;;;21.37;;
73264;SDS011;61493;51.008;14.088;2022-12-17T07:15:20;47.17;;;21.60;;
73264;SDS011;61493;51.008;14.088;2022-12-17T07:18:04;51.50;;;21.03;;
73264;SDS011;61493;51.008;14.088;2022-12-17T07:20:51;48.20;;;21.57;;
73264;SDS011;61493;51.008;14.088;2022-12-17T07:23:34;39.63;;;18.13;;
73264;SDS011;61493;51.008;14.088;2022-12-17T07:26:18;51.00;;;20.57;;
73264;SDS011;61493;51.008;14.088;2022-12-17T07:29:02;41.97;;;20.20;;
73264;SDS011;61493;51.008;14.088;2022-12-17T07:31:46;48.00;;;22.07;;
73264;SDS011;61493;51.008;14.088;2022-12-17T07:34:30;50.03;;;22.77;;
73264;SDS011;61493;51.008;14.088;2022-12-17T07:37:14;53.00;;;22.50;;
73264;SDS011;61493;51.008;14.088;2022-12-17T07:40:13;51.17;;;21.97;;
73264;SDS011;61493;51.008;14.088;2022-12-17T07:42:57;58.07;;;21.80;;
73264;SDS011;61493;51.008;14.088;2022-12-17T07:45:41;49.73;;;21.73;;
73264;SDS011;61493;51.008;14.088;2022-12-17T07:48:24;56.87;;;22.97;;
73264;SDS011;61493;51.008;14.088;2022-12-17T07:51:08;47.80;;;21.77;;
73264;SDS011;61493;51.008;14.088;2022-12-17T07:53:52;52.43;;;23.27;;
73264;SDS011;61493;51.008;14.088;2022-12-17T07:56:36;53.53;;;25.70;;
73264;SDS011;61493;51.008;14.088;2022-12-17T07:59:20;51.37;;;22.00;;
73264;SDS011;61493;51.008;14.088;2022-12-17T08:02:04;57.33;;;25.00;;
73264;SDS011;61493;51.008;14.088;2022-12-17T08:05:02;45.27;;;20.17;;
73264;SDS011;61493;51.008;14.088;2022-12-17T08:08:05;48.60;;;23.60;;
73264;SDS011;61493;51.008;14.088;2022-12-17T08:10:49;38.30;;;20.47;;
73264;SDS011;61493;51.008;14.088;2022-12-17T08:13:34;46.37;;;22.27;;
73264;SDS011;61493;51.008;14.088;2022-12-17T08:16:18;46.10;;;21.63;;
73264;SDS011;61493;51.008;14.088;2022-12-17T08:19:02;65.00;;;24.43;;
73264;SDS011;61493;51.008;14.088;2022-12-17T08:21:46;48.17;;;22.37;;
73264;SDS011;61493;51.008;14.088;2022-12-17T08:24:30;49.53;;;22.43;;
73264;SDS011;61493;51.008;14.088;2022-12-17T08:27:14;51.43;;;22.37;;
73264;SDS011;61493;51.008;14.088;2022-12-17T08:29:58;51.57;;;23.00;;
73264;SDS011;61493;51.008;14.088;2022-12-17T08:32:42;55.90;;;24.03;;
73264;SDS011;61493;51.008;14.088;2022-12-17T08:35:26;55.43;;;23.53;;
73264;SDS011;61493;51.008;14.088;2022-12-17T08:38:10;46.83;;;22.33;;
73264;SDS011;61493;51.008;14.088;2022-12-17T08:40:54;45.97;;;23.07;;
73264;SDS011;61493;51.008;14.088;2022-12-17T08:43:38;39.43;;;18.67;;
73264;SDS011;61493;51.008;14.088;2022-12-17T08:46:22;51.13;;;23.70;;
73264;SDS011;61493;51.008;14.088;2022-12-17T08:49:06;50.00;;;23.57;;
73264;SDS011;61493;51.008;14.088;2022-12-17T08:51:49;46.53;;;21.30;;
73264;SDS011;61493;51.008;14.088;2022-12-17T08:54:36;51.00;;;25.13;;
73264;SDS011;61493;51.008;14.088;2022-12-17T08:57:20;50.23;;;22.00;;
73264;SDS011;61493;51.008;14.088;2022-12-17T09:00:05;44.03;;;21.30;;
73264;SDS011;61493;51.008;14.088;2022-12-17T09:02:48;58.97;;;23.90;;
73264;SDS011;61493;51.008;14.088;2022-12-17T09:05:32;50.23;;;21.77;;
73264;SDS011;61493;51.008;14.088;2022-12-17T09:08:16;55.83;;;26.60;;
73264;SDS011;61493;51.008;14.088;2022-12-17T09:11:00;53.40;;;23.00;;
73264;SDS011;61493;51.008;14.088;2022-12-17T09:13:49;52.77;;;22.50;;
73264;SDS011;61493;51.008;14.088;2022-12-17T09:16:32;52.57;;;24.53;;
73264;SDS011;61493;51.008;14.088;2022-12-17T09:19:16;49.97;;;23.53;;
73264;SDS011;61493;51.008;14.088;2022-12-17T09:22:00;52.90;;;23.87;;
73264;SDS011;61493;51.008;14.088;2022-12-17T09:24:44;57.67;;;25.03;;
73264;SDS011;61493;51.008;14.088;2022-12-17T09:27:28;59.43;;;22.23;;
73264;SDS011;61493;51.008;14.088;2022-12-17T09:30:12;58.57;;;25.63;;
73264;SDS011;61493;51.008;14.088;2022-12-17T09:32:56;56.73;;;26.10;;
73264;SDS011;61493;51.008;14.088;2022-12-17T09:35:40;57.10;;;23.60;;
73264;SDS011;61493;51.008;14.088;2022-12-17T09:38:24;65.03;;;26.53;;
73264;SDS011;61493;51.008;14.088;2022-12-17T09:41:15;68.40;;;26.00;;
73264;SDS011;61493;51.008;14.088;2022-12-17T09:44:03;67.37;;;24.87;;
73264;SDS011;61493;51.008;14.088;2022-12-17T09:49:38;62.97;;;27.60;;
73264;SDS011;61493;51.008;14.088;2022-12-17T09:52:23;57.13;;;24.00;;
73264;SDS011;61493;51.008;14.088;2022-12-17T09:55:29;50.10;;;24.40;;
73264;SDS011;61493;51.008;14.088;2022-12-17T09:58:21;56.50;;;28.10;;
73264;SDS011;61493;51.008;14.088;2022-12-17T10:01:05;60.07;;;24.83;;
73264;SDS011;61493;51.008;14.088;2022-12-17T10:03:53;74.43;;;29.53;;
73264;SDS011;61493;51.008;14.088;2022-12-17T10:06:37;59.00;;;23.73;;
73264;SDS011;61493;51.008;14.088;2022-12-17T10:09:21;56.93;;;24.27;;
73264;SDS011;61493;51.008;14.088;2022-12-17T10:12:16;58.00;;;23.00;;
73264;SDS011;61493;51.008;14.088;2022-12-17T10:15:01;59.37;;;24.30;;
73264;SDS011;61493;51.008;14.088;2022-12-17T10:17:45;51.57;;;19.73;;
73264;SDS011;61493;51.008;14.088;2022-12-17T10:23:26;52.90;;;22.70;;
73264;SDS011;61493;51.008;14.088;2022-12-17T10:26:14;48.27;;;22.27;;
73264;SDS011;61493;51.008;14.088;2022-12-17T10:29:03;55.97;;;20.53;;
73264;SDS011;61493;51.008;14.088;2022-12-17T10:31:47;41.10;;;18.27;;
73264;SDS011;61493;51.008;14.088;2022-12-17T10:34:34;51.97;;;19.37;;
73264;SDS011;61493;51.008;14.088;2022-12-17T10:37:18;43.30;;;16.93;;
73264;SDS011;61493;51.008;14.088;2022-12-17T10:40:03;44.30;;;18.70;;
73264;SDS011;61493;51.008;14.088;2022-12-17T10:42:54;51.50;;;20.53;;
73264;SDS011;61493;51.008;14.088;2022-12-17T10:45:37;51.20;;;21.03;;
73264;SDS011;61493;51.008;14.088;2022-12-17T10:51:16;40.77;;;16.73;;
73264;SDS011;61493;51.008;14.088;2022-12-17T10:54:03;48.23;;;19.30;;
73264;SDS011;61493;51.008;14.088;2022-12-17T10:56:51;53.03;;;20.13;;
73264;SDS011;61493;51.008;14.088;2022-12-17T10:59:35;56.93;;;21.13;;
73264;SDS011;61493;51.008;14.088;2022-12-17T11:02:21;45.20;;;17.77;;
73264;SDS011;61493;51.008;14.088;2022-12-17T11:05:12;51.27;;;20.27;;
73264;SDS011;61493;51.008;14.088;2022-12-17T11:07:57;43.43;;;18.40;;
73264;SDS011;61493;51.008;14.088;2022-12-17T11:10:42;41.57;;;15.43;;
73264;SDS011;61493;51.008;14.088;2022-12-17T11:16:22;48.73;;;19.77;;
73264;SDS011;61493;51.008;14.088;2022-12-17T11:21:53;49.20;;;19.03;;
73264;SDS011;61493;51.008;14.088;2022-12-17T11:24:51;47.37;;;20.07;;
73264;SDS011;61493;51.008;14.088;2022-12-17T11:27:41;42.17;;;16.40;;
73264;SDS011;61493;51.008;14.088;2022-12-17T11:30:26;47.57;;;16.73;;
73264;SDS011;61493;51.008;14.088;2022-12-17T11:33:29;51.03;;;16.43;;
73264;SDS011;61493;51.008;14.088;2022-12-17T11:36:21;44.67;;;19.17;;
73264;SDS011;61493;51.008;14.088;2022-12-17T11:42:26;40.88;;;16.83;;
73264;SDS011;61493;51.008;14.088;2022-12-17T11:48:17;48.37;;;17.80;;
73264;SDS011;61493;51.008;14.088;2022-12-17T11:51:05;41.87;;;19.13;;
73264;SDS011;61493;51.008;14.088;2022-12-17T11:56:51;34.97;;;15.30;;
73264;SDS011;61493;51.008;14.088;2022-12-17T12:00:23;38.27;;;16.90;;
73264;SDS011;61493;51.008;14.088;2022-12-17T12:08:23;31.33;;;14.30;;
73264;SDS011;61493;51.008;14.088;2022-12-17T12:13:56;47.67;;;18.13;;
73264;SDS011;61493;51.008;14.088;2022-12-17T12:17:18;30.67;;;14.70;;
73264;SDS011;61493;51.008;14.088;2022-12-17T12:26:18;44.37;;;18.00;;
73264;SDS011;61493;51.008;14.088;2022-12-17T12:32:18;33.47;;;15.63;;
73264;SDS011;61493;51.008;14.088;2022-12-17T12:35:04;43.73;;;17.33;;
73264;SDS011;61493;51.008;14.088;2022-12-17T12:37:50;40.63;;;15.57;;
73264;SDS011;61493;51.008;14.088;2022-12-17T12:40:47;40.23;;;15.37;;
73264;SDS011;61493;51.008;14.088;2022-12-17T12:43:36;50.10;;;16.77;;
73264;SDS011;61493;51.008;14.088;2022-12-17T12:49:42;43.80;;;16.90;;
73264;SDS011;61493;51.008;14.088;2022-12-17T12:52:27;42.57;;;16.17;;
73264;SDS011;61493;51.008;14.088;2022-12-17T12:55:11;44.53;;;16.17;;
73264;SDS011;61493;51.008;14.088;2022-12-17T13:11:40;40.70;;;17.87;;
73264;SDS011;61493;51.008;14.088;2022-12-17T13:14:09;48.30;;;16.83;;
73264;SDS011;61493;51.008;14.088;2022-12-17T13:42:31;57.10;;;20.40;;
73264;SDS011;61493;51.008;14.088;2022-12-17T13:44:57;46.30;;;19.70;;
73264;SDS011;61493;51.008;14.088;2022-12-17T13:47:24;47.33;;;19.80;;
73264;SDS011;61493;51.008;14.088;2022-12-17T13:49:54;59.30;;;22.63;;
73264;SDS011;61493;51.008;14.088;2022-12-17T13:52:20;58.37;;;21.03;;
73264;SDS011;61493;51.008;14.088;2022-12-17T13:54:46;47.37;;;20.23;;
73264;SDS011;61493;51.008;14.088;2022-12-17T14:02:50;65.70;;;25.57;;
73264;SDS011;61493;51.008;14.088;2022-12-17T14:07:49;55.67;;;21.80;;
73264;SDS011;61493;51.008;14.088;2022-12-17T14:10:42;62.20;;;21.27;;
73264;SDS011;61493;51.008;14.088;2022-12-17T14:13:26;67.47;;;24.57;;
73264;SDS011;61493;51.008;14.088;2022-12-17T14:29:49;50.10;;;18.20;;
73264;SDS011;61493;51.008;14.088;2022-12-17T14:35:27;44.67;;;19.70;;
73264;SDS011;61493;51.008;14.088;2022-12-17T14:37:53;45.72;;;16.92;;
73264;SDS011;61493;51.008;14.088;2022-12-17T14:40:21;41.13;;;16.73;;
73264;SDS011;61493;51.008;14.088;2022-12-17T14:42:56;40.20;;;16.10;;
73264;SDS011;61493;51.008;14.088;2022-12-17T14:45:49;37.23;;;16.37;;
73264;SDS011;61493;51.008;14.088;2022-12-17T14:48:40;33.87;;;13.07;;
73264;SDS011;61493;51.008;14.088;2022-12-17T14:51:27;42.30;;;17.70;;
73264;SDS011;61493;51.008;14.088;2022-12-17T14:54:03;44.97;;;20.50;;
73264;SDS011;61493;51.008;14.088;2022-12-17T14:56:29;45.43;;;19.77;;
73264;SDS011;61493;51.008;14.088;2022-12-17T14:58:54;46.80;;;16.63;;
73264;SDS011;61493;51.008;14.088;2022-12-17T15:01:19;50.90;;;19.00;;
73264;SDS011;61493;51.008;14.088;2022-12-17T15:03:45;49.57;;;20.37;;
73264;SDS011;61493;51.008;14.088;2022-12-17T15:06:11;54.20;;;18.57;;
73264;SDS011;61493;51.008;14.088;2022-12-17T15:08:43;37.83;;;17.50;;
73264;SDS011;61493;51.008;14.088;2022-12-17T15:11:16;40.23;;;16.53;;
73264;SDS011;61493;51.008;14.088;2022-12-17T15:13:47;37.27;;;16.17;;
73264;SDS011;61493;51.008;14.088;2022-12-17T15:22:22;46.50;;;15.30;;
73264;SDS011;61493;51.008;14.088;2022-12-17T15:24:47;35.27;;;13.57;;
73264;SDS011;61493;51.008;14.088;2022-12-17T15:27:14;37.13;;;15.17;;
73264;SDS011;61493;51.008;14.088;2022-12-17T15:29:40;28.80;;;14.97;;
73264;SDS011;61493;51.008;14.088;2022-12-17T15:32:05;39.47;;;15.77;;
73264;SDS011;61493;51.008;14.088;2022-12-17T15:34:31;33.73;;;16.57;;
73264;SDS011;61493;51.008;14.088;2022-12-17T15:36:56;34.87;;;13.43;;
73264;SDS011;61493;51.008;14.088;2022-12-17T15:39:21;30.47;;;15.43;;
73264;SDS011;61493;51.008;14.088;2022-12-17T15:41:46;35.83;;;13.67;;
73264;SDS011;61493;51.008;14.088;2022-12-17T15:44:30;29.73;;;13.13;;
73264;SDS011;61493;51.008;14.088;2022-12-17T15:46:55;34.60;;;13.83;;
73264;SDS011;61493;51.008;14.088;2022-12-17T15:49:21;25.53;;;12.40;;
73264;SDS011;61493;51.008;14.088;2022-12-17T15:51:46;31.30;;;11.93;;
73264;SDS011;61493;51.008;14.088;2022-12-17T15:54:11;32.77;;;11.80;;
73264;SDS011;61493;51.008;14.088;2022-12-17T15:56:37;27.13;;;11.73;;
73264;SDS011;61493;51.008;14.088;2022-12-17T15:59:03;25.03;;;12.73;;
73264;SDS011;61493;51.008;14.088;2022-12-17T16:01:31;28.33;;;12.07;;
73264;SDS011;61493;51.008;14.088;2022-12-17T16:03:57;33.13;;;13.77;;
73264;SDS011;61493;51.008;14.088;2022-12-17T16:06:23;34.63;;;13.53;;
73264;SDS011;61493;51.008;14.088;2022-12-17T16:08:51;29.97;;;13.07;;
73264;SDS011;61493;51.008;14.088;2022-12-17T16:11:16;32.60;;;14.60;;
73264;SDS011;61493;51.008;14.088;2022-12-17T16:13:41;39.93;;;15.67;;
73264;SDS011;61493;51.008;14.088;2022-12-17T16:16:07;33.83;;;13.67;;
73264;SDS011;61493;51.008;14.088;2022-12-17T16:18:34;40.93;;;14.00;;
73264;SDS011;61493;51.008;14.088;2022-12-17T16:21:01;32.33;;;14.47;;
73264;SDS011;61493;51.008;14.088;2022-12-17T16:23:27;34.80;;;14.73;;
73264;SDS011;61493;51.008;14.088;2022-12-17T16:25:56;37.90;;;15.93;;
73264;SDS011;61493;51.008;14.088;2022-12-17T16:28:22;30.13;;;16.13;;
73264;SDS011;61493;51.008;14.088;2022-12-17T16:33:40;34.90;;;15.65;;
73264;SDS011;61493;51.008;14.088;2022-12-17T16:36:07;30.87;;;16.17;;
73264;SDS011;61493;51.008;14.088;2022-12-17T16:38:32;29.17;;;14.03;;
73264;SDS011;61493;51.008;14.088;2022-12-17T16:40:59;25.87;;;12.03;;
73264;SDS011;61493;51.008;14.088;2022-12-17T16:43:25;34.57;;;15.00;;
73264;SDS011;61493;51.008;14.088;2022-12-17T16:45:51;31.33;;;13.57;;
73264;SDS011;61493;51.008;14.088;2022-12-17T16:48:17;34.23;;;13.37;;
73264;SDS011;61493;51.008;14.088;2022-12-17T16:50:43;32.03;;;16.27;;
73264;SDS011;61493;51.008;14.088;2022-12-17T16:53:09;39.87;;;19.47;;
73264;SDS011;61493;51.008;14.088;2022-12-17T16:55:44;31.80;;;15.73;;
73264;SDS011;61493;51.008;14.088;2022-12-17T16:58:09;36.37;;;17.30;;
73264;SDS011;61493;51.008;14.088;2022-12-17T17:00:35;31.63;;;16.93;;
73264;SDS011;61493;51.008;14.088;2022-12-17T17:03:00;32.27;;;14.70;;
73264;SDS011;61493;51.008;14.088;2022-12-17T17:05:25;26.30;;;13.00;;
73264;SDS011;61493;51.008;14.088;2022-12-17T17:07:50;24.43;;;9.60;;
73264;SDS011;61493;51.008;14.088;2022-12-17T17:13:14;23.70;;;10.97;;
73264;SDS011;61493;51.008;14.088;2022-12-17T17:15:39;29.20;;;12.87;;
73264;SDS011;61493;51.008;14.088;2022-12-17T17:18:07;23.53;;;10.97;;
73264;SDS011;61493;51.008;14.088;2022-12-17T17:20:32;27.13;;;12.47;;
73264;SDS011;61493;51.008;14.088;2022-12-17T17:22:58;29.50;;;12.63;;
73264;SDS011;61493;51.008;14.088;2022-12-17T17:25:23;26.20;;;11.63;;
73264;SDS011;61493;51.008;14.088;2022-12-17T17:27:51;32.23;;;12.13;;
73264;SDS011;61493;51.008;14.088;2022-12-17T17:30:16;29.70;;;12.37;;
73264;SDS011;61493;51.008;14.088;2022-12-17T17:32:41;19.90;;;10.27;;
73264;SDS011;61493;51.008;14.088;2022-12-17T17:35:12;26.67;;;11.60;;